Time;durP1;ratioP1;P1;durP2;ratioP2;P2;SDS_P1;SDS_P2;PMS_P1;PMS_P2;Temp;Humidity;BMP_temperature;BMP_pressure;BME280_temperature;BME280_humidity;BME280_pressure;Samples;Min_cycle;Max_cycle;Signal;HPM_P1;HPM_P2
2022/11/27 00:00:20;;;;;;;25.43;11.50;;;0.10;99.90;;;;;;5067656;28;20173;-68
2022/11/27 00:02:46;;;;;;;30.07;10.13;;;0.10;99.90;;;;;;5061923;28;20532;-68
2022/11/27 00:05:12;;;;;;;28.40;11.23;;;0.10;99.90;;;;;;5051567;28;20212;-68
2022/11/27 00:07:37;;;;;;;29.37;11.20;;;0.00;99.90;;;;;;5051194;28;20594;-68
2022/11/27 00:10:03;;;;;;;25.13;12.30;;;0.00;99.90;;;;;;5052650;28;20189;-68
2022/11/27 00:12:30;;;;;;;25.03;10.20;;;0.00;99.90;;;;;;5060386;28;20181;-68
2022/11/27 00:14:55;;;;;;;21.83;9.67;;;0.00;99.90;;;;;;5055295;28;20950;-68
2022/11/27 00:17:21;;;;;;;29.97;9.10;;;-0.10;99.90;;;;;;5071048;28;20466;-68
2022/11/27 00:19:46;;;;;;;23.90;9.50;;;-0.10;99.90;;;;;;5058289;28;20633;-68
2022/11/27 00:22:12;;;;;;;24.13;9.40;;;-0.10;99.90;;;;;;5061474;28;20178;-68
2022/11/27 00:24:38;;;;;;;20.13;9.97;;;-0.20;99.90;;;;;;5052596;28;20204;-69
2022/11/27 00:27:03;;;;;;;29.77;10.53;;;-0.30;99.90;;;;;;5070406;28;20637;-68
2022/11/27 00:29:30;;;;;;;22.63;9.00;;;-0.30;99.90;;;;;;5070083;28;20554;-69
2022/11/27 00:31:56;;;;;;;22.37;9.67;;;-0.30;99.90;;;;;;5051236;28;20189;-68
2022/11/27 00:34:22;;;;;;;23.13;9.30;;;-0.30;99.90;;;;;;5052052;28;20432;-68
2022/11/27 00:36:47;;;;;;;15.20;8.03;;;-0.40;99.90;;;;;;5061427;28;20497;-69
2022/11/27 00:39:13;;;;;;;19.30;8.63;;;-0.40;99.90;;;;;;5051304;28;20535;-68
2022/11/27 00:41:39;;;;;;;24.07;8.20;;;-0.40;99.90;;;;;;5060500;28;20264;-68
2022/11/27 00:44:05;;;;;;;14.33;6.60;;;-0.40;99.90;;;;;;5067897;28;20178;-68
2022/11/27 00:46:32;;;;;;;14.00;7.27;;;-0.50;99.90;;;;;;5051337;28;20631;-68
2022/11/27 00:48:59;;;;;;;21.70;6.80;;;-0.60;99.90;;;;;;5067334;28;20449;-68
2022/11/27 00:51:26;;;;;;;17.63;6.50;;;-0.60;99.90;;;;;;5073848;28;20423;-68
2022/11/27 00:53:52;;;;;;;13.73;7.37;;;-0.70;99.90;;;;;;5069884;28;20452;-68
2022/11/27 00:56:26;;;;;;;18.43;7.30;;;-0.60;99.90;;;;;;5054792;28;20456;-68
2022/11/27 00:58:53;;;;;;;11.87;6.23;;;-0.60;99.90;;;;;;5054368;28;20756;-68
2022/11/27 01:01:22;;;;;;;22.90;6.73;;;-0.60;99.90;;;;;;5054627;28;20438;-68
2022/11/27 01:03:47;;;;;;;16.87;6.90;;;-0.50;99.90;;;;;;5053942;28;20832;-69
2022/11/27 01:06:15;;;;;;;12.73;5.93;;;-0.50;99.90;;;;;;5065834;28;20480;-68
2022/11/27 01:08:41;;;;;;;15.83;6.10;;;-0.60;99.90;;;;;;5074062;28;20259;-68
2022/11/27 01:11:13;;;;;;;11.43;5.57;;;-0.60;99.90;;;;;;5074608;28;20419;-68
2022/11/27 01:13:39;;;;;;;11.80;7.00;;;-0.60;99.90;;;;;;5053801;28;20417;-68
2022/11/27 01:16:07;;;;;;;17.13;6.80;;;-0.60;99.90;;;;;;5067209;28;20423;-68
2022/11/27 01:18:34;;;;;;;15.90;6.40;;;-0.60;99.90;;;;;;5067159;28;20185;-69
2022/11/27 01:21:01;;;;;;;15.60;6.50;;;-0.70;99.90;;;;;;5073631;28;20474;-68
2022/11/27 01:23:26;;;;;;;11.80;6.37;;;-0.70;99.90;;;;;;5073675;28;20412;-69
2022/11/27 01:25:52;;;;;;;16.47;8.20;;;-0.70;99.90;;;;;;5074563;28;20808;-68
2022/11/27 01:28:19;;;;;;;16.43;8.13;;;-0.80;99.90;;;;;;5073870;28;20184;-68
2022/11/27 01:30:44;;;;;;;19.30;8.17;;;-0.70;99.90;;;;;;5060833;28;20657;-68
2022/11/27 01:33:10;;;;;;;14.37;6.50;;;-0.60;99.90;;;;;;5052929;28;20436;-68
2022/11/27 01:35:36;;;;;;;12.47;5.87;;;-0.60;99.90;;;;;;5054760;28;20205;-68
2022/11/27 01:38:02;;;;;;;28.10;8.90;;;-0.60;99.90;;;;;;5068293;28;20463;-69
2022/11/27 01:40:27;;;;;;;14.50;6.20;;;-0.60;99.90;;;;;;5067788;28;20230;-68
2022/11/27 01:42:53;;;;;;;12.47;6.50;;;-0.60;99.90;;;;;;5054525;28;20199;-68
2022/11/27 01:45:20;;;;;;;11.57;5.80;;;-0.70;99.90;;;;;;5054412;28;20190;-68
2022/11/27 01:47:58;;;;;;;17.23;6.57;;;-0.70;99.90;;;;;;5060377;28;20189;-68
2022/11/27 01:50:38;;;;;;;15.93;5.23;;;-0.70;99.90;;;;;;5073839;28;20414;-68
2022/11/27 01:53:21;;;;;;;13.53;6.10;;;-0.80;99.90;;;;;;5073324;28;20419;-68
2022/11/27 01:55:52;;;;;;;9.83;4.97;;;-0.90;99.90;;;;;;5068796;28;20416;-68
2022/11/27 01:58:25;;;;;;;8.80;4.40;;;-0.90;99.90;;;;;;5059957;28;20452;-68
2022/11/27 02:00:51;;;;;;;7.20;4.27;;;-0.90;99.90;;;;;;5053622;28;20416;-69
2022/11/27 02:03:16;;;;;;;7.63;4.50;;;-1.00;99.90;;;;;;5052957;28;20412;-68
2022/11/27 02:05:42;;;;;;;7.67;3.90;;;-1.00;99.90;;;;;;5061397;28;20214;-68
2022/11/27 02:08:11;;;;;;;7.47;4.77;;;-1.00;99.90;;;;;;5067756;28;20535;-69
2022/11/27 02:10:45;;;;;;;8.50;4.43;;;-1.00;99.90;;;;;;5059560;28;20578;-68
2022/11/27 02:13:27;;;;;;;5.83;3.30;;;-1.00;99.90;;;;;;5066295;28;20502;-68
2022/11/27 02:16:09;;;;;;;8.07;5.17;;;-1.00;99.90;;;;;;5054433;28;20424;-68
2022/11/27 02:18:57;;;;;;;10.07;4.40;;;-1.00;99.90;;;;;;5055099;28;20499;-67
2022/11/27 02:21:36;;;;;;;12.80;5.33;;;-1.10;99.90;;;;;;5075590;28;20438;-67
2022/11/27 02:24:23;;;;;;;7.67;3.80;;;-1.10;99.90;;;;;;5061966;28;20963;-67
2022/11/27 02:27:23;;;;;;;9.17;4.87;;;-1.00;99.90;;;;;;5063156;28;20436;-68
2022/11/27 02:29:55;;;;;;;11.60;4.90;;;-1.00;99.90;;;;;;5045127;28;20913;-68
2022/11/27 02:32:31;;;;;;;9.77;4.53;;;-1.00;99.90;;;;;;5079765;28;20419;-68
2022/11/27 02:35:03;;;;;;;12.03;4.87;;;-1.10;99.90;;;;;;5073539;28;20438;-68
2022/11/27 02:37:41;;;;;;;7.33;3.70;;;-1.20;99.90;;;;;;5073456;28;20461;-68
2022/11/27 02:40:13;;;;;;;8.43;3.70;;;-1.20;99.90;;;;;;5063088;28;20408;-68
2022/11/27 02:42:48;;;;;;;7.60;4.80;;;-1.20;99.90;;;;;;5052551;28;20427;-68
2022/11/27 02:45:20;;;;;;;9.37;4.07;;;-1.20;99.90;;;;;;5063844;28;20865;-68
2022/11/27 02:47:49;;;;;;;16.37;4.20;;;-1.20;99.90;;;;;;5059312;28;20433;-69
2022/11/27 02:50:22;;;;;;;7.90;4.17;;;-1.20;99.90;;;;;;5072380;28;20465;-68
2022/11/27 02:52:51;;;;;;;5.70;3.03;;;-1.10;99.90;;;;;;5070715;28;20435;-67
2022/11/27 02:55:21;;;;;;;5.53;3.50;;;-1.10;99.90;;;;;;5066792;28;20431;-67
2022/11/27 02:57:49;;;;;;;6.00;3.57;;;-1.10;99.90;;;;;;5065271;28;20482;-69
2022/11/27 03:00:15;;;;;;;5.63;3.60;;;-1.10;99.90;;;;;;5068075;28;20416;-67
2022/11/27 03:02:51;;;;;;;7.03;3.67;;;-1.10;99.90;;;;;;5060307;28;20461;-67
2022/11/27 03:05:20;;;;;;;7.53;3.57;;;-1.20;99.90;;;;;;5072565;28;20419;-67
2022/11/27 03:07:55;;;;;;;9.23;4.30;;;-1.20;99.90;;;;;;5072650;28;20504;-67
2022/11/27 03:10:32;;;;;;;6.17;3.70;;;-1.30;99.90;;;;;;5072193;28;20509;-67
2022/11/27 03:12:59;;;;;;;9.77;4.33;;;-1.30;99.90;;;;;;5059254;28;20420;-67
2022/11/27 03:15:30;;;;;;;12.60;4.03;;;-1.40;99.90;;;;;;5070570;28;20537;-67
2022/11/27 03:18:05;;;;;;;8.07;4.73;;;-1.40;99.90;;;;;;5058769;28;20474;-67
2022/11/27 03:20:36;;;;;;;6.97;4.50;;;-1.50;99.90;;;;;;5071847;28;20416;-67
2022/11/27 03:23:02;;;;;;;9.83;3.93;;;-1.50;99.90;;;;;;5055783;28;20412;-67
2022/11/27 03:25:28;;;;;;;12.50;4.23;;;-1.40;99.90;;;;;;5061223;28;20499;-67
2022/11/27 03:28:13;;;;;;;5.80;3.10;;;-1.40;99.90;;;;;;5071817;28;20260;-67
2022/11/27 03:30:40;;;;;;;4.53;2.47;;;-1.30;99.90;;;;;;5064662;28;20694;-67
2022/11/27 03:33:06;;;;;;;10.93;3.77;;;-1.40;99.90;;;;;;5069013;28;20484;-67
2022/11/27 03:35:32;;;;;;;6.00;2.43;;;-1.40;99.90;;;;;;5071761;28;20534;-67
2022/11/27 03:37:57;;;;;;;6.63;3.63;;;-1.40;99.90;;;;;;5071552;28;20890;-67
2022/11/27 03:40:29;;;;;;;6.67;3.40;;;-1.40;99.90;;;;;;5071829;28;20185;-67
2022/11/27 03:43:02;;;;;;;11.03;4.23;;;-1.30;99.90;;;;;;5071699;28;20181;-67
2022/11/27 03:45:46;;;;;;;4.80;3.10;;;-1.30;99.90;;;;;;5071839;28;20514;-68
2022/11/27 03:48:34;;;;;;;7.40;2.90;;;-1.30;99.90;;;;;;5064457;28;20421;-68
2022/11/27 03:51:27;;;;;;;4.80;2.83;;;-1.40;99.90;;;;;;5072049;28;20419;-68
2022/11/27 03:54:01;;;;;;;4.77;3.47;;;-1.40;99.90;;;;;;5068288;28;20432;-68
2022/11/27 03:56:59;;;;;;;3.93;2.67;;;-1.40;99.90;;;;;;5056624;28;20451;-68
2022/11/27 03:59:30;;;;;;;6.40;3.40;;;-1.40;99.90;;;;;;5060290;28;20442;-68
2022/11/27 04:01:55;;;;;;;4.27;2.97;;;-1.40;99.90;;;;;;5069332;28;20466;-68
2022/11/27 04:04:21;;;;;;;4.20;2.83;;;-1.50;99.90;;;;;;5062537;28;20417;-68
2022/11/27 04:06:46;;;;;;;7.83;3.57;;;-1.50;99.90;;;;;;5051422;28;20186;-68
2022/11/27 04:09:12;;;;;;;5.80;3.10;;;-1.60;99.90;;;;;;5059454;28;20189;-68
2022/11/27 04:11:38;;;;;;;9.10;3.90;;;-1.60;99.90;;;;;;5071390;28;20220;-68
2022/11/27 04:14:03;;;;;;;4.00;2.33;;;-1.60;99.90;;;;;;5071036;28;20590;-68
2022/11/27 04:16:29;;;;;;;9.10;3.30;;;-1.60;99.90;;;;;;5056852;28;20198;-68
2022/11/27 04:18:54;;;;;;;6.97;2.97;;;-1.60;99.90;;;;;;5051468;28;20185;-68
2022/11/27 04:21:20;;;;;;;8.63;3.63;;;-1.50;99.90;;;;;;5067130;28;20212;-68
2022/11/27 04:23:46;;;;;;;7.30;3.50;;;-1.60;99.90;;;;;;5070959;28;20185;-68
2022/11/27 04:26:11;;;;;;;3.73;2.53;;;-1.60;99.90;;;;;;5074216;28;20192;-68
2022/11/27 04:28:37;;;;;;;5.53;2.90;;;-1.60;99.90;;;;;;5075093;28;20188;-68
2022/11/27 04:31:03;;;;;;;12.93;2.67;;;-1.60;99.90;;;;;;5060842;28;20186;-68
2022/11/27 04:33:29;;;;;;;5.83;2.80;;;-1.60;99.90;;;;;;5054265;28;20189;-68
2022/11/27 04:35:54;;;;;;;5.10;3.07;;;-1.60;99.90;;;;;;5069207;28;20279;-69
2022/11/27 04:38:20;;;;;;;5.10;2.63;;;-1.60;99.90;;;;;;5074211;28;21003;-70
2022/11/27 04:40:47;;;;;;;4.90;3.20;;;-1.60;99.90;;;;;;5075824;28;20205;-68
2022/11/27 04:43:12;;;;;;;6.03;3.40;;;-1.60;99.90;;;;;;5073896;28;20447;-69
2022/11/27 04:45:38;;;;;;;5.00;2.57;;;-1.60;99.90;;;;;;5075425;28;20985;-68
2022/11/27 04:48:04;;;;;;;6.10;2.80;;;-1.60;99.90;;;;;;5075513;28;20695;-67
2022/11/27 04:50:30;;;;;;;3.10;1.97;;;-1.60;99.90;;;;;;5074730;28;20950;-67
2022/11/27 04:52:56;;;;;;;4.97;3.40;;;-1.60;99.90;;;;;;5062634;28;20427;-67
2022/11/27 04:55:22;;;;;;;4.20;2.20;;;-1.60;99.90;;;;;;5071539;28;20784;-68
2022/11/27 04:57:48;;;;;;;4.70;2.40;;;-1.60;99.90;;;;;;5076057;28;20553;-68
2022/11/27 05:00:14;;;;;;;4.13;2.67;;;-1.60;99.90;;;;;;5074139;28;20459;-68
2022/11/27 05:02:40;;;;;;;5.10;2.80;;;-1.70;99.90;;;;;;5055657;28;20190;-68
2022/11/27 05:05:06;;;;;;;3.67;2.17;;;-1.70;99.90;;;;;;5057536;28;20483;-68
2022/11/27 05:07:31;;;;;;;7.80;3.13;;;-1.80;99.90;;;;;;5066504;28;20208;-68
2022/11/27 05:09:57;;;;;;;2.83;2.03;;;-1.80;99.90;;;;;;5079620;28;20216;-68
2022/11/27 05:12:22;;;;;;;2.80;1.73;;;-1.80;99.90;;;;;;5077826;28;20184;-67
2022/11/27 05:14:48;;;;;;;5.53;2.50;;;-1.80;99.90;;;;;;5094418;28;20241;-67
2022/11/27 05:17:14;;;;;;;11.43;3.70;;;-1.80;99.90;;;;;;5091243;28;20201;-68
2022/11/27 05:19:39;;;;;;;4.20;2.00;;;-1.80;99.90;;;;;;5077111;28;20444;-68
2022/11/27 05:22:05;;;;;;;7.33;3.17;;;-1.80;99.90;;;;;;5096861;28;20212;-68
2022/11/27 05:24:31;;;;;;;4.70;2.53;;;-1.80;99.90;;;;;;5100642;28;20176;-68
2022/11/27 05:26:56;;;;;;;8.20;3.07;;;-1.70;99.90;;;;;;5082332;28;20193;-68
2022/11/27 05:29:23;;;;;;;5.37;2.30;;;-1.70;99.90;;;;;;5074859;28;20211;-68
2022/11/27 05:31:49;;;;;;;8.43;2.53;;;-1.60;99.90;;;;;;5063356;28;20742;-68
2022/11/27 05:34:15;;;;;;;3.40;2.47;;;-1.60;99.90;;;;;;5059014;28;20475;-68
2022/11/27 05:36:41;;;;;;;6.33;2.57;;;-1.50;99.90;;;;;;5053113;28;20202;-68
2022/11/27 05:39:08;;;;;;;3.87;2.40;;;-1.50;99.90;;;;;;5053657;28;20198;-68
2022/11/27 05:41:35;;;;;;;4.20;2.33;;;-1.50;99.90;;;;;;5061925;28;20419;-68
2022/11/27 05:44:01;;;;;;;3.03;2.10;;;-1.50;99.90;;;;;;5073203;28;20927;-68
2022/11/27 05:46:27;;;;;;;7.30;3.50;;;-1.60;99.90;;;;;;5073796;28;20428;-68
2022/11/27 05:48:52;;;;;;;4.00;2.20;;;-1.70;99.90;;;;;;5073729;28;20181;-68
2022/11/27 05:51:18;;;;;;;5.73;2.27;;;-1.80;99.90;;;;;;5073620;28;20191;-68
2022/11/27 05:53:44;;;;;;;9.20;3.60;;;-1.80;99.90;;;;;;5071080;28;20642;-68
2022/11/27 05:56:12;;;;;;;6.13;3.20;;;-1.90;99.90;;;;;;5071434;28;20188;-68
2022/11/27 05:58:39;;;;;;;13.23;3.97;;;-1.90;99.90;;;;;;5059719;28;20415;-68
2022/11/27 06:01:06;;;;;;;8.90;4.03;;;-1.80;99.90;;;;;;5062806;28;20439;-68
2022/11/27 06:03:31;;;;;;;12.90;3.60;;;-1.80;99.90;;;;;;5055367;28;20499;-68
2022/11/27 06:05:57;;;;;;;5.73;2.97;;;-1.90;99.90;;;;;;5073387;28;20503;-68
2022/11/27 06:08:23;;;;;;;9.60;4.30;;;-1.80;99.90;;;;;;5073296;28;20260;-68
2022/11/27 06:10:49;;;;;;;8.53;4.23;;;-1.90;99.90;;;;;;5073682;28;20189;-68
2022/11/27 06:13:15;;;;;;;9.83;3.77;;;-1.80;99.90;;;;;;5056942;28;20518;-68
2022/11/27 06:15:40;;;;;;;8.73;3.37;;;-1.80;99.90;;;;;;5066398;28;20453;-68
2022/11/27 06:18:06;;;;;;;9.83;2.63;;;-1.80;99.90;;;;;;5063983;28;20529;-68
2022/11/27 06:20:32;;;;;;;9.53;3.87;;;-1.80;99.90;;;;;;5062136;28;20227;-68
2022/11/27 06:22:58;;;;;;;5.40;3.03;;;-1.80;99.90;;;;;;5056917;28;20265;-68
2022/11/27 06:25:25;;;;;;;5.40;2.83;;;-1.90;99.90;;;;;;5061882;28;20904;-68
2022/11/27 06:27:51;;;;;;;5.17;2.50;;;-1.90;99.90;;;;;;5059453;28;20435;-68
2022/11/27 06:30:16;;;;;;;8.90;4.10;;;-1.90;99.90;;;;;;5063377;28;20428;-68
2022/11/27 06:32:42;;;;;;;5.97;3.00;;;-1.90;99.90;;;;;;5052320;28;20196;-68
2022/11/27 06:35:08;;;;;;;11.37;4.67;;;-2.00;99.90;;;;;;5053465;28;20197;-68
2022/11/27 06:37:34;;;;;;;6.30;3.40;;;-2.10;99.90;;;;;;5068914;28;20685;-68
2022/11/27 06:39:59;;;;;;;6.83;3.80;;;-2.10;99.90;;;;;;5072768;28;20498;-68
2022/11/27 06:42:28;;;;;;;10.10;4.53;;;-2.10;99.90;;;;;;5068384;28;20256;-68
2022/11/27 06:44:54;;;;;;;6.40;4.23;;;-2.00;99.90;;;;;;5052449;28;20257;-68
2022/11/27 06:47:19;;;;;;;5.63;2.93;;;-1.80;99.90;;;;;;5052454;28;20504;-68
2022/11/27 06:49:45;;;;;;;8.90;4.60;;;-1.80;99.90;;;;;;5051646;28;20544;-68
2022/11/27 06:52:10;;;;;;;12.20;4.80;;;-1.70;99.90;;;;;;5052420;28;20216;-68
2022/11/27 06:54:36;;;;;;;12.90;5.40;;;-1.70;99.90;;;;;;5057412;28;20203;-68
2022/11/27 06:57:03;;;;;;;8.77;4.20;;;-1.60;99.90;;;;;;5070068;28;20204;-68
2022/11/27 06:59:28;;;;;;;10.53;4.87;;;-1.60;99.90;;;;;;5061359;28;20181;-68
2022/11/27 07:01:54;;;;;;;4.83;3.20;;;-1.60;99.90;;;;;;5070609;28;20823;-68
2022/11/27 07:04:19;;;;;;;6.93;3.90;;;-1.50;99.90;;;;;;5072407;28;20656;-68
2022/11/27 07:06:45;;;;;;;9.17;4.67;;;-1.50;99.90;;;;;;5071168;28;20256;-68
2022/11/27 07:09:11;;;;;;;11.33;3.00;;;-1.50;99.90;;;;;;5072000;28;20272;-68
2022/11/27 07:11:38;;;;;;;6.67;3.37;;;-1.50;99.90;;;;;;5056084;28;20256;-68
2022/11/27 07:14:04;;;;;;;8.67;3.80;;;-1.50;99.90;;;;;;5060997;28;20199;-68
2022/11/27 07:16:33;;;;;;;5.27;2.50;;;-1.50;99.90;;;;;;5055893;28;20932;-68
2022/11/27 07:19:05;;;;;;;10.03;3.63;;;-1.40;99.90;;;;;;5052208;28;20710;-68
2022/11/27 07:21:31;;;;;;;4.50;2.40;;;-1.30;99.90;;;;;;5068677;28;20415;-68
2022/11/27 07:23:57;;;;;;;5.17;3.17;;;-1.30;99.90;;;;;;5071313;28;20915;-68
2022/11/27 07:26:25;;;;;;;6.60;3.40;;;-1.20;99.90;;;;;;5054768;28;20185;-68
2022/11/27 07:28:51;;;;;;;5.53;2.77;;;-1.00;99.90;;;;;;5051319;28;20182;-68
2022/11/27 07:31:20;;;;;;;3.90;2.43;;;-1.00;99.90;;;;;;5061739;28;20427;-68
2022/11/27 07:33:46;;;;;;;4.00;2.67;;;-1.00;99.90;;;;;;5074469;28;20422;-69
2022/11/27 07:36:16;;;;;;;6.60;3.20;;;-1.00;99.90;;;;;;5071404;28;20466;-69
2022/11/27 07:38:43;;;;;;;6.53;3.40;;;-0.90;99.90;;;;;;5061553;28;20417;-69
2022/11/27 07:41:09;;;;;;;9.87;3.90;;;-0.70;99.90;;;;;;5071979;28;20415;-68
2022/11/27 07:43:36;;;;;;;4.60;2.20;;;-0.60;99.90;;;;;;5062831;28;20423;-68
2022/11/27 07:46:07;;;;;;;5.90;3.30;;;-0.50;99.90;;;;;;5059041;28;20419;-67
2022/11/27 07:48:33;;;;;;;3.77;2.73;;;-0.40;99.90;;;;;;5059536;28;20436;-68
2022/11/27 07:50:59;;;;;;;8.30;2.77;;;-0.40;99.90;;;;;;5058035;28;20419;-68
2022/11/27 07:53:25;;;;;;;7.00;3.07;;;-0.40;99.90;;;;;;5075814;28;20185;-69
2022/11/27 07:55:50;;;;;;;4.40;2.67;;;-0.30;99.90;;;;;;5077146;28;20185;-68
2022/11/27 07:58:16;;;;;;;7.67;3.70;;;-0.20;99.90;;;;;;5070358;28;20253;-69
2022/11/27 08:00:42;;;;;;;5.37;2.57;;;0.00;99.90;;;;;;5064153;28;20178;-68
2022/11/27 08:03:09;;;;;;;9.00;3.63;;;0.10;99.90;;;;;;5064146;28;20208;-69
2022/11/27 08:05:37;;;;;;;13.50;5.07;;;0.20;99.90;;;;;;5058145;28;20468;-68
2022/11/27 08:08:03;;;;;;;14.40;6.77;;;0.30;99.90;;;;;;5057821;28;20565;-68
2022/11/27 08:10:29;;;;;;;18.90;7.70;;;0.40;99.90;;;;;;5051480;28;20527;-69
2022/11/27 08:12:56;;;;;;;15.63;8.10;;;0.60;99.90;;;;;;5056374;28;20430;-69
2022/11/27 08:15:22;;;;;;;14.23;7.10;;;0.70;99.90;;;;;;5051083;28;20435;-69
2022/11/27 08:17:48;;;;;;;30.90;6.27;;;0.80;99.90;;;;;;5063929;28;20463;-69
2022/11/27 08:20:14;;;;;;;8.17;4.70;;;0.90;99.90;;;;;;5070530;28;20630;-69
2022/11/27 08:22:39;;;;;;;7.37;4.53;;;1.00;99.90;;;;;;5056997;28;20182;-69
2022/11/27 08:25:05;;;;;;;18.80;4.07;;;1.10;99.90;;;;;;5064092;28;20420;-69
2022/11/27 08:27:32;;;;;;;7.30;3.87;;;1.30;99.90;;;;;;5055622;28;20238;-69
2022/11/27 08:29:58;;;;;;;11.07;4.20;;;1.40;99.90;;;;;;5060858;28;20482;-69
2022/11/27 08:32:24;;;;;;;10.10;4.10;;;1.50;99.90;;;;;;5053675;28;20431;-69
2022/11/27 08:34:49;;;;;;;21.60;4.07;;;1.60;99.90;;;;;;5060555;28;20444;-69
2022/11/27 08:37:15;;;;;;;7.00;3.47;;;1.70;99.90;;;;;;5055284;28;20242;-69
2022/11/27 08:39:41;;;;;;;8.37;4.00;;;1.80;99.90;;;;;;5062106;28;20186;-68
2022/11/27 08:42:06;;;;;;;11.70;2.60;;;2.00;99.90;;;;;;5052414;28;20196;-69
2022/11/27 08:44:32;;;;;;;9.67;4.53;;;2.20;99.90;;;;;;5061580;28;20645;-69
2022/11/27 08:46:57;;;;;;;8.50;3.50;;;2.40;99.90;;;;;;5064337;28;20200;-68
2022/11/27 08:49:23;;;;;;;5.70;2.30;;;2.60;99.90;;;;;;5063228;28;20213;-69
2022/11/27 08:51:49;;;;;;;4.63;2.50;;;2.70;99.90;;;;;;5068376;28;20182;-69
2022/11/27 08:54:15;;;;;;;8.83;4.13;;;2.90;99.90;;;;;;5072371;28;20193;-69
2022/11/27 08:56:40;;;;;;;10.83;3.77;;;2.90;99.90;;;;;;5073614;28;20208;-68
2022/11/27 08:59:07;;;;;;;4.30;2.70;;;2.90;99.90;;;;;;5075610;28;20268;-68
2022/11/27 09:01:33;;;;;;;3.93;2.13;;;2.90;99.90;;;;;;5060638;28;20222;-67
2022/11/27 09:03:59;;;;;;;5.63;3.07;;;2.90;99.90;;;;;;5072647;28;20443;-68
2022/11/27 09:06:27;;;;;;;6.97;1.90;;;3.00;99.90;;;;;;5056682;28;20186;-67
2022/11/27 09:08:57;;;;;;;4.27;2.37;;;3.10;99.90;;;;;;5060941;28;20536;-68
2022/11/27 09:11:23;;;;;;;14.20;5.20;;;3.20;99.90;;;;;;5053978;28;20836;-67
2022/11/27 09:13:49;;;;;;;17.40;5.87;;;3.20;99.90;;;;;;5063267;28;20453;-68
2022/11/27 09:16:19;;;;;;;8.90;3.00;;;3.40;99.90;;;;;;5058515;28;20201;-68
2022/11/27 09:18:48;;;;;;;9.47;3.50;;;3.50;99.90;;;;;;5054559;28;20235;-68
2022/11/27 09:21:15;;;;;;;9.47;2.83;;;3.50;99.90;;;;;;5067894;28;20469;-68
2022/11/27 09:23:41;;;;;;;6.93;2.60;;;3.60;99.90;;;;;;5053738;28;20426;-68
2022/11/27 09:26:09;;;;;;;14.33;3.40;;;3.70;99.90;;;;;;5071123;28;20509;-68
2022/11/27 09:28:36;;;;;;;10.10;3.20;;;3.80;99.90;;;;;;5063078;28;20227;-68
2022/11/27 09:31:03;;;;;;;4.60;2.80;;;3.80;99.90;;;;;;5053927;28;20432;-68
2022/11/27 09:33:31;;;;;;;13.43;3.20;;;3.80;99.90;;;;;;5066543;28;20911;-67
2022/11/27 09:35:57;;;;;;;6.43;3.00;;;3.90;99.90;;;;;;5076937;28;20473;-67
2022/11/27 09:38:23;;;;;;;10.30;2.50;;;4.00;99.90;;;;;;5075304;28;20509;-67
2022/11/27 09:40:51;;;;;;;5.07;3.07;;;4.00;99.90;;;;;;5058436;28;20452;-67
2022/11/27 09:43:20;;;;;;;4.53;2.17;;;4.00;99.90;;;;;;5069594;28;20449;-67
2022/11/27 09:45:54;;;;;;;3.17;2.33;;;4.10;99.90;;;;;;5059433;28;20420;-67
2022/11/27 09:48:33;;;;;;;2.37;1.53;;;4.10;99.90;;;;;;5068268;28;20434;-68
2022/11/27 09:51:01;;;;;;;4.53;2.40;;;4.20;99.90;;;;;;5062752;28;20415;-68
2022/11/27 09:53:57;;;;;;;2.40;1.80;;;4.30;99.90;;;;;;5076125;28;20431;-68
2022/11/27 09:56:23;;;;;;;3.33;2.37;;;4.20;99.90;;;;;;5063591;28;20416;-67
2022/11/27 09:58:56;;;;;;;4.50;2.57;;;4.20;99.90;;;;;;5055180;28;20488;-68
2022/11/27 10:01:27;;;;;;;3.27;1.80;;;4.20;99.90;;;;;;5056039;28;20916;-68
2022/11/27 10:03:53;;;;;;;5.43;2.20;;;4.20;99.90;;;;;;5055535;28;20413;-67
2022/11/27 10:06:38;;;;;;;3.80;1.67;;;4.40;99.90;;;;;;5055786;28;20967;-68
2022/11/27 10:09:24;;;;;;;2.90;1.70;;;4.50;99.90;;;;;;5056573;28;20412;-68
2022/11/27 10:12:12;;;;;;;3.60;2.27;;;4.70;99.90;;;;;;5074993;28;20473;-68
2022/11/27 10:15:00;;;;;;;4.50;2.03;;;4.60;99.90;;;;;;5075237;28;20407;-68
2022/11/27 10:17:31;;;;;;;2.13;1.50;;;4.60;99.90;;;;;;5075523;28;20527;-68
2022/11/27 10:20:11;;;;;;;3.77;2.40;;;4.60;99.90;;;;;;5058936;28;20432;-68
2022/11/27 10:23:09;;;;;;;3.33;1.73;;;4.60;99.90;;;;;;5059875;28;20424;-69
2022/11/27 10:25:46;;;;;;;5.10;2.70;;;4.60;99.90;;;;;;5069888;28;20414;-68
2022/11/27 10:28:33;;;;;;;3.70;2.03;;;4.60;99.90;;;;;;5066121;28;20477;-67
2022/11/27 10:31:20;;;;;;;5.50;3.30;;;4.70;99.90;;;;;;5058222;28;20412;-67
2022/11/27 10:33:52;;;;;;;6.27;1.90;;;5.00;99.90;;;;;;5054283;28;20416;-67
2022/11/27 10:36:28;;;;;;;2.83;1.03;;;5.20;99.90;;;;;;5057791;28;20435;-67
2022/11/27 10:38:56;;;;;;;1.90;1.00;;;5.60;99.90;;;;;;5059170;28;20427;-68
2022/11/27 10:41:29;;;;;;;2.23;1.50;;;5.80;99.90;;;;;;5077415;28;20783;-68
2022/11/27 10:43:59;;;;;;;2.17;1.13;;;6.10;99.90;;;;;;5077553;28;20446;-67
2022/11/27 10:46:28;;;;;;;11.93;2.20;;;6.50;99.90;;;;;;5078959;28;20888;-68
2022/11/27 10:48:54;;;;;;;8.20;2.57;;;6.70;99.90;;;;;;5072279;28;20420;-68
2022/11/27 10:51:24;;;;;;;3.40;1.87;;;6.80;99.90;;;;;;5056594;28;20412;-69
2022/11/27 10:53:52;;;;;;;4.20;2.10;;;6.80;99.90;;;;;;5059682;28;20185;-68
2022/11/27 10:56:39;;;;;;;3.77;1.87;;;6.60;99.90;;;;;;5071506;28;20587;-68
2022/11/27 10:59:08;;;;;;;3.10;1.77;;;6.50;99.90;;;;;;5064548;28;20410;-68
2022/11/27 11:01:43;;;;;;;6.37;2.40;;;6.50;99.90;;;;;;5052334;28;20495;-69
2022/11/27 11:04:11;;;;;;;5.33;1.83;;;6.60;99.90;;;;;;5052552;28;21133;-69
2022/11/27 11:06:41;;;;;;;2.13;1.23;;;6.60;99.90;;;;;;5068919;28;20433;-69
2022/11/27 11:09:19;;;;;;;10.73;1.47;;;6.70;99.90;;;;;;5072333;28;20417;-69
2022/11/27 11:11:44;;;;;;;4.27;1.33;;;6.50;99.90;;;;;;5066621;28;20408;-67
2022/11/27 11:14:23;;;;;;;3.43;0.93;;;6.50;99.90;;;;;;5056665;28;20965;-68
2022/11/27 11:16:49;;;;;;;4.03;1.63;;;6.50;99.90;;;;;;5069617;28;20232;-67
2022/11/27 11:19:28;;;;;;;3.20;1.37;;;6.50;99.90;;;;;;5075366;28;20753;-68
2022/11/27 11:21:55;;;;;;;2.90;1.13;;;6.50;99.90;;;;;;5054993;28;20411;-67
2022/11/27 11:24:45;;;;;;;1.93;1.07;;;6.60;99.90;;;;;;5057728;28;20428;-67
2022/11/27 11:27:23;;;;;;;2.57;0.80;;;6.80;99.90;;;;;;5075438;28;20893;-67
2022/11/27 11:29:53;;;;;;;1.80;0.77;;;7.00;99.90;;;;;;5054877;28;20424;-68
2022/11/27 11:32:19;;;;;;;2.37;1.33;;;7.20;99.90;;;;;;5075560;28;20404;-68
2022/11/27 11:34:51;;;;;;;3.10;1.40;;;7.40;99.90;;;;;;5093693;28;20426;-67
2022/11/27 11:37:29;;;;;;;1.87;0.90;;;7.30;99.90;;;;;;5097193;28;20189;-67
2022/11/27 11:39:59;;;;;;;5.33;2.90;;;7.10;99.90;;;;;;5096630;28;20393;-67
2022/11/27 11:42:30;;;;;;;5.63;2.87;;;6.80;99.90;;;;;;5090786;28;20435;-68
2022/11/27 11:45:12;;;;;;;3.40;1.10;;;6.80;99.90;;;;;;5072933;28;20412;-70
2022/11/27 11:47:59;;;;;;;3.10;1.20;;;6.80;99.90;;;;;;5060660;28;20425;-68
2022/11/27 11:50:42;;;;;;;4.03;1.10;;;6.80;99.90;;;;;;5049346;28;20474;-68
2022/11/27 11:53:20;;;;;;;1.97;1.13;;;6.80;99.90;;;;;;5059206;28;20427;-69
2022/11/27 11:56:06;;;;;;;1.50;0.80;;;6.90;99.90;;;;;;5052298;28;20420;-67
2022/11/27 11:58:51;;;;;;;2.80;1.03;;;7.30;99.90;;;;;;5051953;28;20517;-68
2022/11/27 12:01:37;;;;;;;3.57;1.83;;;7.50;99.90;;;;;;5051688;28;20416;-67
2022/11/27 12:04:30;;;;;;;2.93;0.77;;;7.60;99.90;;;;;;5057135;28;20941;-67
2022/11/27 12:07:02;;;;;;;1.60;0.90;;;7.70;99.90;;;;;;5062522;28;20458;-68
2022/11/27 12:10:03;;;;;;;2.27;1.07;;;7.70;99.90;;;;;;5064648;28;20423;-67
2022/11/27 12:12:46;;;;;;;1.40;0.70;;;7.70;99.90;;;;;;5046203;28;20451;-68
2022/11/27 12:15:20;;;;;;;1.50;0.80;;;7.60;99.90;;;;;;5057966;28;20415;-67
2022/11/27 12:18:24;;;;;;;1.70;0.70;;;7.70;99.90;;;;;;5056178;28;20498;-67
2022/11/27 12:20:49;;;;;;;1.70;0.70;;;7.80;99.90;;;;;;5062815;28;20424;-67
2022/11/27 12:23:24;;;;;;;2.80;1.10;;;7.80;99.90;;;;;;5050941;28;20424;-67
2022/11/27 12:26:20;;;;;;;1.87;0.80;;;7.80;99.90;;;;;;5065798;28;20225;-67
2022/11/27 12:28:52;;;;;;;1.20;0.53;;;7.90;99.20;;;;;;5071023;28;20411;-67
2022/11/27 12:31:43;;;;;;;1.80;0.73;;;8.00;98.70;;;;;;5059033;28;20482;-68
2022/11/27 12:34:33;;;;;;;1.70;0.97;;;7.90;98.10;;;;;;5043254;28;20444;-68
2022/11/27 12:37:29;;;;;;;2.90;1.10;;;7.80;98.50;;;;;;5058890;28;20487;-67
2022/11/27 12:40:16;;;;;;;2.77;0.90;;;7.80;98.90;;;;;;5060702;28;20506;-67
2022/11/27 12:42:59;;;;;;;1.40;0.80;;;7.80;99.10;;;;;;5071194;28;20411;-68
2022/11/27 12:46:05;;;;;;;1.90;1.00;;;7.90;99.80;;;;;;5069493;28;20502;-68
2022/11/27 12:48:46;;;;;;;1.70;0.93;;;8.10;99.90;;;;;;5054841;28;20430;-68
2022/11/27 12:51:36;;;;;;;1.50;0.87;;;8.40;99.90;;;;;;5063915;28;20919;-68
2022/11/27 12:54:14;;;;;;;2.10;1.40;;;8.50;99.40;;;;;;5069069;28;20485;-68
2022/11/27 12:56:47;;;;;;;5.00;1.37;;;8.70;99.60;;;;;;5074730;28;20454;-68
2022/11/27 12:59:22;;;;;;;1.97;0.90;;;8.70;98.10;;;;;;5066301;28;20412;-68
2022/11/27 13:02:11;;;;;;;1.50;0.80;;;8.80;98.30;;;;;;5070898;28;20817;-68
2022/11/27 13:04:50;;;;;;;2.63;1.20;;;8.80;98.40;;;;;;5062260;28;20931;-66